Time;durP1;ratioP1;P1;durP2;ratioP2;P2;SDS_P1;SDS_P2;PMS_P1;PMS_P2;Temp;Humidity;BMP_temperature;BMP_pressure;BME280_temperature;BME280_humidity;BME280_pressure;Samples;Min_cycle;Max_cycle;Signal;HPM_P1;HPM_P2
2023/02/04 00:01:47;;;;;;;4.07;3.60;;;6.80;1.00;;;;;;5095605;28;20770;-39
2023/02/04 00:04:13;;;;;;;4.23;3.83;;;6.80;1.00;;;;;;5094950;28;20479;-41
2023/02/04 00:06:39;;;;;;;4.13;3.80;;;6.70;1.00;;;;;;5095859;28;20175;-39
2023/02/04 00:09:05;;;;;;;5.43;3.70;;;6.70;1.00;;;;;;5094854;28;20249;-39
2023/02/04 00:11:30;;;;;;;4.33;3.37;;;6.70;1.00;;;;;;5095028;28;20181;-39
2023/02/04 00:13:56;;;;;;;5.03;3.67;;;6.60;1.00;;;;;;5095867;28;21007;-40
2023/02/04 00:16:22;;;;;;;4.60;4.20;;;6.60;1.00;;;;;;5095451;28;20492;-40
2023/02/04 00:18:47;;;;;;;4.63;3.47;;;6.60;1.00;;;;;;5095341;28;20180;-38
2023/02/04 00:21:13;;;;;;;4.07;3.40;;;6.60;1.00;;;;;;5094739;28;20424;-39
2023/02/04 00:23:38;;;;;;;3.87;3.17;;;6.60;1.00;;;;;;5092482;28;20180;-39
2023/02/04 00:26:04;;;;;;;3.47;3.10;;;6.60;1.00;;;;;;5094803;28;20210;-39
2023/02/04 00:28:31;;;;;;;4.90;2.93;;;6.60;1.00;;;;;;5093750;28;20215;-38
2023/02/04 00:30:57;;;;;;;3.40;3.10;;;6.60;1.00;;;;;;5094462;28;20410;-39
2023/02/04 00:33:22;;;;;;;3.37;3.00;;;6.50;1.00;;;;;;5094992;28;20212;-39
2023/02/04 00:35:48;;;;;;;3.43;2.87;;;6.50;1.00;;;;;;5093910;28;20180;-38
2023/02/04 00:38:14;;;;;;;4.63;2.77;;;6.50;1.00;;;;;;5094942;28;20188;-38
2023/02/04 00:40:40;;;;;;;4.17;3.03;;;6.50;1.00;;;;;;5093794;28;20504;-40
2023/02/04 00:43:05;;;;;;;3.23;2.80;;;6.50;1.00;;;;;;5095363;28;20517;-38
2023/02/04 00:45:31;;;;;;;2.57;2.20;;;6.50;1.00;;;;;;5095559;28;20650;-40
2023/02/04 00:47:56;;;;;;;3.40;2.77;;;6.60;1.00;;;;;;5094698;28;20237;-38
2023/02/04 00:50:23;;;;;;;3.03;2.73;;;6.60;1.00;;;;;;5094817;28;20164;-39
2023/02/04 00:52:48;;;;;;;3.60;3.30;;;6.60;1.00;;;;;;5095140;28;20215;-40
2023/02/04 00:55:15;;;;;;;3.40;2.50;;;6.60;1.00;;;;;;5095133;28;20446;-39
2023/02/04 00:57:42;;;;;;;3.50;2.63;;;6.60;1.00;;;;;;5095067;28;20180;-39
2023/02/04 01:00:08;;;;;;;3.10;2.30;;;6.60;1.00;;;;;;5094752;28;20545;-39
2023/02/04 01:02:34;;;;;;;2.70;2.50;;;6.60;1.00;;;;;;5096185;28;20414;-41
2023/02/04 01:05:00;;;;;;;2.73;2.37;;;6.60;1.00;;;;;;5095498;28;20425;-40
2023/02/04 01:07:26;;;;;;;7.60;3.47;;;6.60;1.00;;;;;;5095758;28;20536;-40
2023/02/04 01:09:51;;;;;;;3.30;2.23;;;6.70;1.00;;;;;;5095142;28;20434;-38
2023/02/04 01:12:17;;;;;;;2.70;2.50;;;6.60;1.00;;;;;;5093526;28;20581;-39
2023/02/04 01:14:43;;;;;;;2.80;2.30;;;6.70;1.00;;;;;;5094906;28;20586;-40
2023/02/04 01:17:08;;;;;;;3.53;2.90;;;6.70;1.00;;;;;;5095709;28;20466;-41
2023/02/04 01:19:34;;;;;;;3.00;2.70;;;6.70;1.00;;;;;;5095191;28;20946;-40
2023/02/04 01:22:00;;;;;;;3.53;3.20;;;6.80;1.00;;;;;;5100593;28;20172;-39
2023/02/04 01:24:25;;;;;;;3.90;2.97;;;6.70;1.00;;;;;;5099810;28;20232;-39
2023/02/04 01:26:51;;;;;;;6.43;2.97;;;6.80;1.00;;;;;;5099906;28;20184;-39
2023/02/04 01:29:16;;;;;;;3.37;2.90;;;6.80;1.00;;;;;;5098886;28;20195;-39
2023/02/04 01:31:42;;;;;;;3.37;3.07;;;6.80;1.00;;;;;;5098020;28;20180;-41
2023/02/04 01:34:08;;;;;;;3.03;2.77;;;6.70;1.00;;;;;;5098024;28;20180;-40
2023/02/04 01:36:33;;;;;;;3.23;2.57;;;6.70;1.00;;;;;;5098667;28;20181;-42
2023/02/04 01:38:59;;;;;;;4.73;3.20;;;6.70;1.00;;;;;;5097826;28;20181;-39
2023/02/04 01:41:26;;;;;;;3.90;3.33;;;6.70;1.00;;;;;;5098064;28;20180;-39
2023/02/04 01:43:51;;;;;;;3.73;3.43;;;6.80;1.00;;;;;;5098869;28;20414;-39
2023/02/04 01:46:17;;;;;;;3.80;3.00;;;6.70;1.00;;;;;;5099621;28;20417;-38
2023/02/04 01:48:43;;;;;;;3.40;3.10;;;6.80;1.00;;;;;;5098422;28;20177;-39
2023/02/04 01:51:11;;;;;;;3.23;2.93;;;6.80;1.00;;;;;;5099360;28;20172;-38
2023/02/04 01:53:38;;;;;;;4.10;3.70;;;6.80;1.00;;;;;;5098124;28;20177;-42
2023/02/04 01:56:30;;;;;;;4.70;3.80;;;6.70;1.00;;;;;;5098735;28;20848;-41
2023/02/04 01:58:56;;;;;;;4.10;3.43;;;6.80;1.00;;;;;;5096081;28;20430;-39
2023/02/04 02:01:43;;;;;;;4.40;4.00;;;6.80;1.00;;;;;;5099226;28;20415;-40
2023/02/04 02:04:18;;;;;;;5.03;4.63;;;6.80;1.00;;;;;;5097807;28;20410;-39
2023/02/04 02:06:47;;;;;;;4.20;3.70;;;6.80;1.00;;;;;;5096682;28;20682;-41
2023/02/04 02:09:13;;;;;;;3.57;3.20;;;6.80;1.00;;;;;;5096950;28;20900;-39
2023/02/04 02:11:39;;;;;;;4.03;3.00;;;6.80;1.00;;;;;;5097413;28;20414;-40
2023/02/04 02:14:04;;;;;;;2.13;1.60;;;6.70;1.00;;;;;;5097433;28;20255;-40
2023/02/04 02:16:30;;;;;;;4.80;1.90;;;6.60;1.00;;;;;;5097812;28;20586;-40
2023/02/04 02:18:57;;;;;;;1.67;1.40;;;6.60;1.00;;;;;;5098132;28;20589;-39
2023/02/04 02:21:48;;;;;;;3.13;1.40;;;6.50;1.00;;;;;;5099237;28;20176;-39
2023/02/04 02:24:23;;;;;;;2.13;1.50;;;6.40;1.00;;;;;;5098352;28;20568;-39
2023/02/04 02:26:49;;;;;;;2.90;1.80;;;6.40;1.00;;;;;;5098713;28;20413;-39
2023/02/04 02:29:15;;;;;;;4.90;1.43;;;6.30;1.00;;;;;;5097464;28;20427;-40
2023/02/04 02:31:40;;;;;;;7.73;1.30;;;6.80;1.00;;;;;;5098039;28;20267;-40
2023/02/04 02:34:06;;;;;;;2.67;1.47;;;8.00;1.00;;;;;;5098985;28;20211;-40
2023/02/04 02:36:32;;;;;;;7.43;1.63;;;8.50;1.00;;;;;;5097688;28;20261;-39
2023/02/04 02:38:58;;;;;;;2.30;1.20;;;9.00;1.00;;;;;;5098465;28;20187;-39
2023/02/04 02:41:24;;;;;;;4.97;1.37;;;9.30;1.00;;;;;;5098818;28;20168;-44
2023/02/04 02:43:50;;;;;;;1.77;1.00;;;9.70;1.00;;;;;;5097206;28;20843;-39
2023/02/04 02:46:15;;;;;;;2.00;1.17;;;9.90;99.90;;;;;;5097818;28;20444;-39
2023/02/04 02:48:41;;;;;;;1.63;1.17;;;9.60;1.00;;;;;;5097434;28;20275;-40
2023/02/04 02:51:07;;;;;;;2.10;1.10;;;9.10;1.00;;;;;;5098300;28;20178;-41
2023/02/04 02:53:33;;;;;;;1.80;1.10;;;8.50;99.90;;;;;;5097558;28;20257;-39
2023/02/04 02:56:00;;;;;;;3.73;1.40;;;8.00;99.90;;;;;;5098165;28;20482;-40
2023/02/04 02:58:31;;;;;;;2.10;0.97;;;7.70;1.00;;;;;;5098172;28;20472;-41
2023/02/04 03:00:59;;;;;;;1.83;0.83;;;7.40;1.00;;;;;;5097585;28;20557;-40
2023/02/04 03:03:26;;;;;;;1.33;0.97;;;7.10;99.90;;;;;;5097880;28;20434;-40
2023/02/04 03:05:56;;;;;;;13.40;8.60;;;6.90;99.90;;;;;;5097925;28;20414;-39
2023/02/04 03:08:22;;;;;;;3.10;1.80;;;6.80;99.90;;;;;;5098006;28;20430;-40
2023/02/04 03:10:48;;;;;;;2.67;1.13;;;6.60;99.90;;;;;;5097542;28;20414;-40
2023/02/04 03:13:15;;;;;;;3.57;1.47;;;6.60;1.00;;;;;;5098190;28;20192;-39
2023/02/04 03:15:42;;;;;;;3.07;1.50;;;6.50;1.00;;;;;;5098448;28;20418;-39
2023/02/04 03:18:08;;;;;;;17.00;8.20;;;6.40;1.00;;;;;;5097732;28;20430;-39
2023/02/04 03:20:33;;;;;;;3.77;1.30;;;6.40;1.00;;;;;;5095628;28;20465;-39
2023/02/04 03:22:59;;;;;;;16.20;7.60;;;6.40;1.00;;;;;;5094627;28;20426;-37
2023/02/04 03:25:28;;;;;;;31.30;12.57;;;6.40;1.00;;;;;;5096728;28;20216;-38
2023/02/04 03:27:55;;;;;;;18.13;9.57;;;6.30;1.00;;;;;;5095792;28;20342;-39
2023/02/04 03:30:22;;;;;;;7.87;2.43;;;6.30;1.00;;;;;;5095236;28;20830;-40
2023/02/04 03:32:47;;;;;;;3.43;1.50;;;6.20;1.00;;;;;;5095956;28;20427;-38
2023/02/04 03:35:13;;;;;;;2.50;1.40;;;6.20;1.00;;;;;;5097678;28;20429;-38
2023/02/04 03:37:39;;;;;;;3.80;1.50;;;6.10;1.00;;;;;;5097345;28;20180;-38
2023/02/04 03:40:05;;;;;;;2.13;1.40;;;6.10;1.00;;;;;;5097086;28;20219;-39
2023/02/04 03:42:30;;;;;;;1.87;1.37;;;6.10;1.00;;;;;;5097005;28;20169;-39
2023/02/04 03:44:56;;;;;;;3.00;1.57;;;6.10;1.00;;;;;;5097640;28;20449;-39
2023/02/04 03:47:22;;;;;;;3.83;2.47;;;6.10;1.00;;;;;;5097469;28;20176;-39
2023/02/04 03:49:47;;;;;;;6.27;2.33;;;6.10;1.00;;;;;;5097023;28;20439;-39
2023/02/04 03:52:13;;;;;;;5.77;2.83;;;6.10;1.00;;;;;;5097079;28;20461;-39
2023/02/04 03:54:39;;;;;;;5.97;2.97;;;6.00;1.00;;;;;;5097320;28;20192;-39
2023/02/04 03:57:04;;;;;;;8.73;3.33;;;6.00;1.00;;;;;;5097036;28;20173;-38
2023/02/04 03:59:30;;;;;;;4.07;2.27;;;5.90;1.00;;;;;;5096860;28;20216;-39
2023/02/04 04:01:55;;;;;;;8.93;3.23;;;5.90;1.00;;;;;;5097364;28;20169;-39
2023/02/04 04:04:21;;;;;;;6.97;3.03;;;5.90;1.00;;;;;;5096773;28;20173;-39
2023/02/04 04:06:47;;;;;;;4.13;2.60;;;5.80;1.00;;;;;;5096832;28;20584;-38
2023/02/04 04:09:12;;;;;;;5.10;3.43;;;5.80;1.00;;;;;;5096544;28;20334;-39
2023/02/04 04:11:38;;;;;;;6.13;3.30;;;5.80;1.00;;;;;;5096723;28;20176;-38
2023/02/04 04:14:03;;;;;;;5.70;2.50;;;5.80;1.00;;;;;;5097089;28;20192;-38
2023/02/04 04:16:29;;;;;;;4.83;2.80;;;5.70;1.00;;;;;;5096589;28;20191;-38
2023/02/04 04:18:55;;;;;;;6.97;3.40;;;5.70;1.00;;;;;;5095824;28;20189;-39
2023/02/04 04:21:20;;;;;;;5.03;2.90;;;5.70;1.00;;;;;;5096940;28;20450;-40
2023/02/04 04:23:46;;;;;;;4.63;2.53;;;5.70;1.00;;;;;;5095449;28;20610;-39
2023/02/04 04:26:12;;;;;;;4.60;2.80;;;5.70;1.00;;;;;;5096251;28;20180;-40
2023/02/04 04:28:37;;;;;;;6.77;3.20;;;5.70;1.00;;;;;;5096697;28;20188;-39
2023/02/04 04:31:03;;;;;;;11.33;3.13;;;5.70;1.00;;;;;;5096085;28;20508;-38
2023/02/04 04:33:29;;;;;;;5.57;3.00;;;5.60;1.00;;;;;;5095169;28;20458;-38
2023/02/04 04:35:54;;;;;;;8.03;3.77;;;5.70;1.00;;;;;;5096030;28;20176;-38
2023/02/04 04:38:20;;;;;;;6.47;3.33;;;5.70;1.00;;;;;;5096547;28;20180;-40
2023/02/04 04:40:46;;;;;;;7.37;4.27;;;5.70;1.00;;;;;;5095884;28;20566;-39
2023/02/04 04:43:11;;;;;;;7.80;4.37;;;5.60;1.00;;;;;;5095477;28;20181;-38
2023/02/04 04:45:37;;;;;;;7.53;3.97;;;5.60;1.00;;;;;;5095000;28;20187;-39
2023/02/04 04:48:03;;;;;;;10.43;4.70;;;5.60;1.00;;;;;;5094530;28;20203;-38
2023/02/04 04:50:28;;;;;;;8.70;3.57;;;5.60;1.00;;;;;;5095374;28;20250;-37
2023/02/04 04:52:54;;;;;;;5.83;3.20;;;5.60;1.00;;;;;;5094148;28;20805;-41
2023/02/04 04:55:20;;;;;;;7.20;4.40;;;5.60;1.00;;;;;;5092436;28;20270;-39
2023/02/04 04:57:45;;;;;;;8.03;4.00;;;5.60;1.00;;;;;;5094934;28;20185;-38
2023/02/04 05:00:15;;;;;;;8.93;6.77;;;5.60;1.00;;;;;;5095824;28;20208;-40
2023/02/04 05:02:42;;;;;;;6.37;4.70;;;5.60;1.00;;;;;;5095311;28;20412;-38
2023/02/04 05:05:08;;;;;;;6.30;3.87;;;5.60;1.00;;;;;;5095873;28;20505;-38
2023/02/04 05:07:33;;;;;;;4.87;3.77;;;5.60;1.00;;;;;;5095622;28;20514;-38
2023/02/04 05:09:59;;;;;;;5.87;4.00;;;5.60;1.00;;;;;;5095687;28;20458;-39
2023/02/04 05:12:25;;;;;;;4.90;3.70;;;5.60;1.00;;;;;;5095423;28;20180;-42
2023/02/04 05:14:50;;;;;;;25.23;14.43;;;5.60;1.00;;;;;;5094519;28;20224;-41
2023/02/04 05:17:16;;;;;;;45.23;27.73;;;5.60;1.00;;;;;;5096204;28;20227;-41
2023/02/04 05:19:41;;;;;;;16.07;8.93;;;5.70;1.00;;;;;;5094527;28;20310;-39
2023/02/04 05:22:07;;;;;;;36.27;19.77;;;5.70;1.00;;;;;;5094742;28;20196;-38
2023/02/04 05:24:33;;;;;;;9.60;5.80;;;5.60;1.00;;;;;;5095095;28;20281;-38
2023/02/04 05:26:58;;;;;;;4.40;3.50;;;5.60;1.00;;;;;;5094643;28;20176;-38
2023/02/04 05:29:24;;;;;;;5.93;3.67;;;5.60;1.00;;;;;;5094484;28;20189;-38
2023/02/04 05:31:49;;;;;;;6.37;3.43;;;5.60;1.00;;;;;;5094238;28;20177;-40
2023/02/04 05:34:15;;;;;;;4.73;3.37;;;5.60;1.00;;;;;;5094516;28;20168;-40
2023/02/04 05:36:41;;;;;;;4.97;3.50;;;5.60;1.00;;;;;;5094516;28;20255;-40
2023/02/04 05:39:06;;;;;;;4.93;3.23;;;5.60;1.00;;;;;;5096475;28;20323;-39
2023/02/04 05:41:32;;;;;;;8.40;4.20;;;5.60;1.00;;;;;;5096114;28;20304;-40
2023/02/04 05:43:57;;;;;;;7.80;3.57;;;5.60;1.00;;;;;;5095656;28;20180;-39
2023/02/04 05:46:23;;;;;;;4.90;3.50;;;5.70;1.00;;;;;;5098761;28;20173;-39
2023/02/04 05:48:49;;;;;;;5.23;4.70;;;5.60;1.00;;;;;;5098830;28;20550;-38
2023/02/04 05:51:14;;;;;;;7.87;6.43;;;5.70;1.00;;;;;;5096891;28;20177;-37
2023/02/04 05:53:40;;;;;;;6.90;5.43;;;5.70;1.00;;;;;;5096865;28;20434;-39
2023/02/04 05:56:06;;;;;;;7.80;4.50;;;5.70;1.00;;;;;;5093886;28;20176;-40
2023/02/04 05:58:34;;;;;;;8.33;4.93;;;5.70;1.00;;;;;;5094804;28;20263;-40
2023/02/04 06:01:01;;;;;;;5.20;4.57;;;5.70;1.00;;;;;;5095693;28;20214;-39
2023/02/04 06:03:27;;;;;;;8.23;4.50;;;5.70;1.00;;;;;;5095809;28;20469;-38
2023/02/04 06:05:53;;;;;;;7.90;4.87;;;5.70;1.00;;;;;;5094450;28;20502;-39
2023/02/04 06:08:18;;;;;;;8.33;5.23;;;5.70;1.00;;;;;;5096272;28;20524;-40
2023/02/04 06:10:44;;;;;;;9.93;6.17;;;5.60;1.00;;;;;;5096706;28;20242;-38
2023/02/04 06:13:09;;;;;;;7.87;5.47;;;5.70;1.00;;;;;;5096629;28;20257;-40
2023/02/04 06:15:35;;;;;;;10.07;6.53;;;5.70;1.00;;;;;;5097190;28;20245;-38
2023/02/04 06:18:01;;;;;;;12.97;8.90;;;5.70;1.00;;;;;;5096658;28;20287;-38
2023/02/04 06:20:26;;;;;;;6.80;5.60;;;5.70;1.00;;;;;;5097239;28;20967;-39
2023/02/04 06:22:53;;;;;;;10.00;7.03;;;5.60;1.00;;;;;;5097872;28;20237;-38
2023/02/04 06:25:19;;;;;;;8.23;5.90;;;5.70;1.00;;;;;;5097777;28;20227;-39
2023/02/04 06:27:45;;;;;;;6.57;5.57;;;5.70;1.00;;;;;;5098378;28;20442;-40
2023/02/04 06:30:12;;;;;;;11.60;5.50;;;5.70;1.00;;;;;;5097682;28;20719;-39
2023/02/04 06:32:37;;;;;;;13.80;6.40;;;5.70;1.00;;;;;;5098073;28;20255;-41
2023/02/04 06:35:03;;;;;;;8.60;6.77;;;5.60;1.00;;;;;;5097820;28;20510;-39
2023/02/04 06:37:29;;;;;;;14.07;7.10;;;5.60;1.00;;;;;;5097978;28;20529;-39
2023/02/04 06:39:56;;;;;;;8.77;7.87;;;5.60;1.00;;;;;;5079000;28;20470;-39
2023/02/04 06:42:24;;;;;;;12.00;5.80;;;5.60;1.00;;;;;;5097369;28;20175;-38
2023/02/04 06:44:49;;;;;;;11.80;7.20;;;5.60;1.00;;;;;;5097031;28;20441;-38
2023/02/04 06:47:15;;;;;;;7.93;6.03;;;5.60;1.00;;;;;;5097524;28;20414;-40
2023/02/04 06:49:41;;;;;;;10.43;6.13;;;5.60;1.00;;;;;;5097388;28;20187;-39
2023/02/04 06:52:06;;;;;;;9.90;6.53;;;5.60;1.00;;;;;;5097814;28;20172;-40
2023/02/04 06:54:32;;;;;;;11.83;5.97;;;5.60;1.00;;;;;;5098700;28;20426;-39
2023/02/04 06:57:05;;;;;;;13.00;6.00;;;5.60;1.00;;;;;;5098715;28;20184;-38
2023/02/04 06:59:37;;;;;;;10.77;6.40;;;5.60;1.00;;;;;;5097523;28;20293;-39
2023/02/04 07:02:04;;;;;;;16.57;8.17;;;5.60;1.00;;;;;;5098868;28;20711;-39
2023/02/04 07:04:30;;;;;;;12.27;6.97;;;5.60;1.00;;;;;;5098652;28;20430;-39
2023/02/04 07:06:56;;;;;;;12.40;7.57;;;5.60;1.00;;;;;;5098574;28;20407;-39
2023/02/04 07:09:21;;;;;;;13.23;5.93;;;5.50;1.00;;;;;;5096721;28;20582;-38
2023/02/04 07:11:47;;;;;;;11.87;6.87;;;5.50;1.00;;;;;;5097820;28;20188;-38
2023/02/04 07:14:13;;;;;;;11.97;6.50;;;5.40;1.00;;;;;;5098097;28;20198;-39
2023/02/04 07:16:39;;;;;;;14.60;7.27;;;5.40;1.00;;;;;;5098185;28;20447;-40
2023/02/04 07:19:05;;;;;;;19.93;8.10;;;5.50;1.00;;;;;;5094796;28;20187;-39
2023/02/04 07:21:30;;;;;;;12.30;6.37;;;5.50;1.00;;;;;;5096094;28;20414;-38
2023/02/04 07:23:56;;;;;;;8.83;6.60;;;5.50;1.00;;;;;;5095812;28;20486;-38
2023/02/04 07:26:21;;;;;;;11.03;6.90;;;5.50;1.00;;;;;;5096961;28;20546;-37
2023/02/04 07:28:47;;;;;;;13.27;7.53;;;5.50;1.00;;;;;;5095887;28;20176;-37
2023/02/04 07:31:13;;;;;;;13.33;7.47;;;5.50;1.00;;;;;;5095184;28;20375;-38
2023/02/04 07:33:39;;;;;;;10.97;7.50;;;5.50;1.00;;;;;;5095375;28;20532;-40
2023/02/04 07:36:05;;;;;;;11.67;7.87;;;5.60;1.00;;;;;;5092611;28;20548;-37
2023/02/04 07:38:31;;;;;;;15.07;7.73;;;5.50;1.00;;;;;;5094202;28;20184;-38
2023/02/04 07:40:56;;;;;;;20.40;9.30;;;5.60;1.00;;;;;;5093771;28;20200;-38
2023/02/04 07:43:22;;;;;;;15.90;9.43;;;5.60;1.00;;;;;;5092813;28;20181;-37
2023/02/04 07:45:47;;;;;;;16.23;8.00;;;5.60;1.00;;;;;;5094193;28;20562;-38
2023/02/04 07:48:13;;;;;;;12.13;9.03;;;5.60;1.00;;;;;;5094196;28;20176;-38
2023/02/04 07:50:39;;;;;;;18.53;11.77;;;5.60;1.00;;;;;;5094617;28;20168;-38
2023/02/04 07:53:04;;;;;;;12.20;9.00;;;5.60;1.00;;;;;;5094375;28;20180;-38
2023/02/04 07:55:30;;;;;;;12.90;7.37;;;5.60;1.00;;;;;;5094622;28;20168;-37
2023/02/04 07:57:56;;;;;;;14.33;8.90;;;5.60;1.00;;;;;;5094941;28;20172;-41
2023/02/04 08:00:21;;;;;;;14.77;8.20;;;5.60;1.00;;;;;;5093061;28;20227;-38
2023/02/04 08:02:47;;;;;;;17.13;7.40;;;5.60;99.90;;;;;;5092613;28;20233;-38
2023/02/04 08:05:13;;;;;;;16.77;8.13;;;5.60;99.90;;;;;;5093364;28;20453;-38
2023/02/04 08:07:39;;;;;;;12.33;8.10;;;5.60;99.90;;;;;;5092851;28;20168;-38
2023/02/04 08:10:05;;;;;;;15.60;8.33;;;5.70;99.90;;;;;;5094117;28;20198;-37
2023/02/04 08:12:31;;;;;;;15.80;8.90;;;5.70;99.90;;;;;;5095527;28;20183;-39
2023/02/04 08:14:56;;;;;;;13.23;7.70;;;5.70;99.90;;;;;;5096277;28;20548;-39
2023/02/04 08:17:22;;;;;;;16.23;9.23;;;5.90;99.90;;;;;;5095127;28;20469;-38
2023/02/04 08:19:48;;;;;;;18.10;7.20;;;5.90;99.90;;;;;;5093339;28;20230;-39
2023/02/04 08:22:13;;;;;;;13.07;7.80;;;6.00;99.90;;;;;;5092058;28;20248;-39
2023/02/04 08:24:39;;;;;;;17.47;8.23;;;6.10;99.90;;;;;;5092044;28;20271;-38
2023/02/04 08:27:04;;;;;;;19.03;8.00;;;6.20;99.90;;;;;;5091385;28;20294;-37
2023/02/04 08:29:30;;;;;;;18.30;8.40;;;6.30;99.90;;;;;;5091709;28;20271;-38
2023/02/04 08:31:56;;;;;;;17.07;7.60;;;6.30;99.90;;;;;;5092639;28;20195;-38
2023/02/04 08:34:21;;;;;;;19.60;8.33;;;6.40;99.90;;;;;;5094811;28;20271;-39
2023/02/04 08:36:47;;;;;;;17.83;8.17;;;6.50;99.90;;;;;;5094575;28;20172;-39
2023/02/04 08:39:13;;;;;;;16.83;7.70;;;6.50;99.90;;;;;;5093694;28;20528;-38
2023/02/04 08:41:38;;;;;;;16.47;8.43;;;6.60;52.60;;;;;;5094142;28;20612;-37
2023/02/04 08:44:04;;;;;;;17.03;8.17;;;6.60;41.40;;;;;;5092867;28;20267;-38
2023/02/04 08:46:30;;;;;;;13.27;8.10;;;6.70;36.30;;;;;;5092879;28;20191;-39
2023/02/04 08:48:55;;;;;;;14.17;8.00;;;6.60;1.00;;;;;;5093154;28;20231;-39
2023/02/04 08:51:21;;;;;;;14.33;7.90;;;6.70;1.00;;;;;;5092387;28;20645;-39
2023/02/04 08:53:47;;;;;;;14.67;7.13;;;6.70;1.00;;;;;;5096327;28;20453;-39
2023/02/04 08:56:16;;;;;;;15.47;8.47;;;6.70;1.00;;;;;;5091984;28;20616;-38
2023/02/04 08:58:43;;;;;;;20.63;8.67;;;6.70;1.00;;;;;;5093229;28;20188;-39
2023/02/04 09:01:10;;;;;;;15.17;7.50;;;6.80;1.00;;;;;;5093392;28;20549;-39
2023/02/04 09:03:36;;;;;;;11.30;8.00;;;6.90;1.00;;;;;;5090399;28;20535;-38
2023/02/04 09:06:02;;;;;;;17.00;8.00;;;7.00;1.00;;;;;;5091595;28;20410;-38
2023/02/04 09:08:28;;;;;;;20.23;7.83;;;7.20;99.90;;;;;;5092999;28;20433;-38
2023/02/04 09:10:53;;;;;;;12.77;7.33;;;7.40;99.90;;;;;;5090635;28;20840;-38
2023/02/04 09:13:19;;;;;;;42.67;20.77;;;7.70;90.80;;;;;;5093167;28;20191;-39
2023/02/04 09:15:45;;;;;;;23.53;15.67;;;8.10;1.00;;;;;;5091989;28;20465;-37
2023/02/04 09:18:15;;;;;;;15.07;9.77;;;8.50;1.00;;;;;;5094243;28;20538;-38
2023/02/04 09:20:42;;;;;;;34.37;18.87;;;9.00;1.00;;;;;;5076595;28;20541;-40
2023/02/04 09:23:09;;;;;;;43.77;27.30;;;9.60;99.90;;;;;;5091474;28;20860;-38
2023/02/04 09:25:35;;;;;;;27.83;16.57;;;9.90;99.90;;;;;;5093717;28;20474;-38
2023/02/04 09:28:00;;;;;;;26.70;14.40;;;10.20;99.90;;;;;;5093413;28;20452;-42
2023/02/04 09:30:26;;;;;;;13.27;7.73;;;10.40;99.90;;;;;;5092565;28;20214;-39
2023/02/04 09:32:52;;;;;;;18.00;9.80;;;10.60;99.90;;;;;;5094428;28;20169;-39
2023/02/04 09:35:17;;;;;;;20.93;10.73;;;10.70;1.00;;;;;;5093571;28;20263;-38
2023/02/04 09:37:43;;;;;;;24.80;16.13;;;10.60;1.00;;;;;;5093773;28;20191;-38
2023/02/04 09:40:13;;;;;;;14.53;7.60;;;10.30;99.90;;;;;;5093690;28;20562;-40
2023/02/04 09:42:39;;;;;;;22.63;12.40;;;10.20;1.00;;;;;;5079745;28;20176;-38
2023/02/04 09:45:05;;;;;;;15.23;7.57;;;10.00;1.00;;;;;;5095124;28;20479;-40
2023/02/04 09:47:31;;;;;;;11.00;6.50;;;9.80;1.00;;;;;;5096345;28;20176;-37
2023/02/04 09:49:57;;;;;;;10.90;5.20;;;9.70;1.00;;;;;;5095481;28;20423;-37
2023/02/04 09:52:23;;;;;;;12.67;5.00;;;9.50;1.00;;;;;;5096364;28;20542;-38
2023/02/04 09:54:49;;;;;;;11.50;4.30;;;9.40;1.00;;;;;;5094293;28;20244;-39
2023/02/04 09:57:17;;;;;;;15.00;6.07;;;9.20;99.90;;;;;;5095812;28;20410;-40
2023/02/04 09:59:44;;;;;;;8.80;4.67;;;9.10;99.90;;;;;;5094741;28;20239;-38
2023/02/04 10:02:22;;;;;;;11.47;5.43;;;8.90;1.00;;;;;;5093116;28;20423;-39
2023/02/04 10:04:50;;;;;;;12.87;5.83;;;8.80;34.90;;;;;;5095173;28;20482;-39
2023/02/04 10:07:20;;;;;;;6.80;4.43;;;8.70;77.70;;;;;;5095467;28;20415;-39
2023/02/04 10:09:46;;;;;;;10.00;5.30;;;8.70;99.90;;;;;;5094884;28;20418;-41
2023/02/04 10:12:12;;;;;;;7.70;4.20;;;8.80;99.90;;;;;;5096939;28;20438;-38
2023/02/04 10:14:39;;;;;;;8.67;4.30;;;9.00;48.80;;;;;;5095842;28;20917;-40
2023/02/04 10:17:05;;;;;;;9.53;4.20;;;9.80;1.00;;;;;;5095113;28;20176;-39
2023/02/04 10:19:30;;;;;;;8.70;4.83;;;11.80;1.00;;;;;;5094318;28;20991;-39
2023/02/04 10:21:56;;;;;;;6.57;4.10;;;13.90;1.00;;;;;;5094670;28;20176;-39
2023/02/04 10:24:25;;;;;;;8.70;3.40;;;15.40;1.00;;;;;;5095862;28;20313;-39
2023/02/04 10:26:51;;;;;;;11.17;3.63;;;16.00;1.00;;;;;;5097391;28;20418;-42
2023/02/04 10:29:24;;;;;;;9.13;3.30;;;15.60;1.00;;;;;;5097276;28;20521;-40
2023/02/04 10:31:50;;;;;;;8.37;3.70;;;14.40;1.00;;;;;;5097556;28;20478;-38
2023/02/04 10:34:17;;;;;;;10.00;3.17;;;13.20;1.00;;;;;;5078068;28;20431;-38
2023/02/04 10:36:45;;;;;;;9.77;3.70;;;12.40;1.00;;;;;;5078038;28;20718;-39
2023/02/04 10:39:13;;;;;;;6.73;2.83;;;11.90;1.00;;;;;;5075968;28;20429;-38
2023/02/04 10:41:48;;;;;;;9.27;3.50;;;11.40;1.00;;;;;;5092482;28;20831;-38
2023/02/04 10:44:17;;;;;;;9.20;3.73;;;11.00;1.00;;;;;;5093104;28;20421;-39
2023/02/04 10:46:42;;;;;;;10.83;3.10;;;10.80;1.00;;;;;;5091956;28;20743;-38
2023/02/04 10:49:20;;;;;;;4.90;1.20;;;10.60;1.00;;;;;;5094289;28;20418;-38
2023/02/04 10:51:47;;;;;;;8.23;2.17;;;11.30;99.90;;;;;;5093886;28;20406;-45
2023/02/04 10:54:31;;;;;;;8.30;3.00;;;12.60;1.00;;;;;;5073799;28;20423;-44
2023/02/04 10:57:17;;;;;;;6.23;2.70;;;13.40;99.90;;;;;;5075680;28;20403;-40
2023/02/04 10:59:43;;;;;;;7.63;3.80;;;13.70;1.00;;;;;;5075425;28;20904;-40
2023/02/04 11:02:46;;;;;;;10.63;4.10;;;13.20;1.00;;;;;;5073813;28;20520;-39
2023/02/04 11:05:19;;;;;;;6.00;2.83;;;12.50;1.00;;;;;;5075463;28;20411;-40
2023/02/04 11:07:46;;;;;;;10.90;3.67;;;11.90;1.00;;;;;;5075129;28;20399;-39
2023/02/04 11:10:13;;;;;;;11.20;6.10;;;11.30;1.00;;;;;;5075717;28;20698;-40
2023/02/04 11:12:54;;;;;;;10.77;6.20;;;10.90;1.00;;;;;;5073209;28;20476;-39
2023/02/04 11:15:46;;;;;;;11.63;5.50;;;10.60;1.00;;;;;;5073717;28;20449;-40
2023/02/04 11:18:32;;;;;;;11.40;5.10;;;10.30;1.00;;;;;;5074531;28;20427;-39
2023/02/04 11:20:58;;;;;;;13.47;4.80;;;10.20;1.00;;;;;;5071633;28;20942;-39
2023/02/04 11:23:26;;;;;;;8.40;3.33;;;10.20;8.90;;;;;;5073014;28;20423;-38
2023/02/04 11:26:12;;;;;;;10.50;3.50;;;10.20;18.30;;;;;;5074429;28;20715;-39
2023/02/04 11:28:43;;;;;;;11.90;3.03;;;10.20;66.00;;;;;;5073150;28;20472;-39
2023/02/04 11:31:49;;;;;;;12.20;3.77;;;10.40;47.60;;;;;;5075563;28;20486;-40
2023/02/04 11:34:14;;;;;;;8.63;4.13;;;10.50;3.40;;;;;;5070572;28;20861;-38
2023/02/04 11:37:06;;;;;;;6.40;3.40;;;10.80;1.00;;;;;;5072771;28;20422;-38
2023/02/04 11:39:42;;;;;;;8.83;3.87;;;10.80;1.00;;;;;;5074799;28;20205;-39
2023/02/04 11:42:20;;;;;;;11.23;4.47;;;10.90;1.00;;;;;;5074635;28;20686;-38
2023/02/04 11:44:55;;;;;;;7.87;3.67;;;10.80;1.00;;;;;;5073365;28;20805;-40
2023/02/04 11:47:23;;;;;;;9.70;4.20;;;10.70;1.00;;;;;;5074727;28;20421;-39
2023/02/04 11:49:54;;;;;;;8.20;3.80;;;10.70;11.70;;;;;;5074149;28;20864;-39
2023/02/04 11:52:20;;;;;;;8.13;3.50;;;10.60;8.10;;;;;;5073278;28;20837;-42
2023/02/04 11:54:57;;;;;;;11.37;3.33;;;10.60;13.90;;;;;;5074029;28;20442;-40
2023/02/04 11:57:23;;;;;;;10.07;5.03;;;10.50;1.00;;;;;;5072474;28;20847;-41
2023/02/04 11:59:51;;;;;;;12.03;3.67;;;10.40;1.00;;;;;;5073620;28;20474;-39
2023/02/04 12:02:19;;;;;;;10.63;3.27;;;10.30;1.00;;;;;;5074973;28;20442;-39
2023/02/04 12:04:57;;;;;;;10.50;3.33;;;10.00;1.00;;;;;;5093929;28;20422;-39
2023/02/04 12:07:29;;;;;;;14.80;3.67;;;9.70;1.00;;;;;;5095590;28;20680;-38
2023/02/04 12:09:55;;;;;;;10.30;3.90;;;9.40;38.50;;;;;;5094627;28;20430;-39
2023/02/04 12:12:29;;;;;;;9.00;3.20;;;9.10;95.10;;;;;;5093097;28;20420;-40
2023/02/04 12:15:13;;;;;;;7.70;3.53;;;8.90;99.90;;;;;;5094178;28;20429;-39
2023/02/04 12:17:39;;;;;;;10.40;4.10;;;8.70;99.90;;;;;;5094638;28;20788;-40
2023/02/04 12:20:05;;;;;;;14.00;4.00;;;8.70;99.90;;;;;;5094988;28;20462;-39
2023/02/04 12:22:30;;;;;;;6.90;3.20;;;8.70;99.90;;;;;;5096087;28;20267;-39
2023/02/04 12:24:56;;;;;;;7.60;3.70;;;8.70;99.90;;;;;;5095765;28;20474;-41
2023/02/04 12:27:22;;;;;;;9.50;4.10;;;8.80;99.90;;;;;;5095981;28;20321;-39
2023/02/04 12:29:47;;;;;;;10.20;3.70;;;8.90;99.90;;;;;;5095490;28;20300;-39
2023/02/04 12:32:13;;;;;;;15.90;4.53;;;8.90;99.90;;;;;;5095338;28;20204;-39
2023/02/04 12:34:38;;;;;;;12.70;3.40;;;9.00;99.90;;;;;;5095219;28;20184;-39
2023/02/04 12:37:04;;;;;;;9.33;2.87;;;9.10;99.90;;;;;;5095400;28;20180;-40
2023/02/04 12:39:30;;;;;;;9.63;4.00;;;9.20;99.90;;;;;;5094424;28;20195;-39
2023/02/04 12:41:56;;;;;;;11.60;2.97;;;9.30;99.90;;;;;;5092915;28;20164;-40
2023/02/04 12:44:22;;;;;;;9.13;3.13;;;9.40;72.90;;;;;;5092550;28;20434;-39
2023/02/04 12:46:47;;;;;;;10.67;2.93;;;9.50;86.80;;;;;;5093276;28;20312;-39
2023/02/04 12:49:13;;;;;;;7.27;3.10;;;9.50;49.50;;;;;;5093435;28;20551;-38
2023/02/04 12:51:39;;;;;;;8.57;2.50;;;9.60;27.70;;;;;;5094471;28;20175;-39
2023/02/04 12:54:04;;;;;;;8.80;3.17;;;9.80;39.20;;;;;;5095519;28;20176;-40
2023/02/04 12:56:30;;;;;;;7.73;3.10;;;10.20;25.40;;;;;;5095409;28;20176;-41
2023/02/04 12:58:56;;;;;;;7.40;2.13;;;10.70;1.00;;;;;;5095269;28;20176;-39